createdAt,value
2023-01-19T00:00:53.851Z,99619.47
2023-01-19T00:03:21.796Z,99628.22
2023-01-19T00:05:49.331Z,99620.47
2023-01-19T00:08:16.928Z,99609.25
2023-01-19T00:10:46.544Z,99615.78
2023-01-19T00:13:14.403Z,99621.88
2023-01-19T00:15:41.324Z,99610.06
2023-01-19T00:18:10.694Z,99615.03
2023-01-19T00:20:39.216Z,99607.22
2023-01-19T00:23:08.298Z,99603.81
2023-01-19T00:25:36.569Z,99614.13
2023-01-19T00:28:03.510Z,99604.72
2023-01-19T00:30:30.610Z,99618.28
2023-01-19T00:32:58.115Z,99604.63
2023-01-19T00:35:27.238Z,99615.41
2023-01-19T00:37:54.178Z,99604.34
2023-01-19T00:40:21.049Z,99619.91
2023-01-19T00:42:48.662Z,99601.66
2023-01-19T00:45:20.910Z,99596.41
2023-01-19T00:47:50.395Z,99606.00
2023-01-19T00:50:17.760Z,99601.78
2023-01-19T00:52:45.133Z,99599.19
2023-01-19T00:55:15.711Z,99599.38
2023-01-19T00:57:43.263Z,99589.97
2023-01-19T01:00:19.521Z,99595.69
2023-01-19T01:02:48.084Z,99595.50
2023-01-19T01:05:15.587Z,99604.59
2023-01-19T01:07:44.686Z,99591.22
2023-01-19T01:10:16.990Z,99595.94
2023-01-19T01:12:55.657Z,99584.63
2023-01-19T01:15:26.658Z,99581.66
2023-01-19T01:17:53.993Z,99596.94
2023-01-19T01:20:24.540Z,99581.97
2023-01-19T01:22:53.452Z,99600.84
2023-01-19T01:25:22.844Z,99607.69
2023-01-19T01:27:50.783Z,99572.69
2023-01-19T01:30:18.348Z,99590.91
2023-01-19T01:32:45.310Z,99592.22
2023-01-19T01:35:13.239Z,99606.66
2023-01-19T01:37:40.731Z,99579.50
2023-01-19T01:40:08.557Z,99586.19
2023-01-19T01:42:35.528Z,99597.13
2023-01-19T01:45:07.785Z,99585.38
2023-01-19T01:47:46.021Z,99595.84
2023-01-19T01:50:30.477Z,99590.44
2023-01-19T01:53:11.155Z,99617.59
2023-01-19T01:55:46.851Z,99593.66
2023-01-19T01:58:16.420Z,99595.69
2023-01-19T02:01:01.864Z,99592.22
2023-01-19T02:03:29.598Z,99591.53
2023-01-19T02:06:00.579Z,99600.13
2023-01-19T02:09:06.429Z,99596.59
2023-01-19T02:11:53.075Z,99608.25
2023-01-19T02:14:19.974Z,99582.63
2023-01-19T02:16:47.459Z,99587.16
2023-01-19T02:19:19.602Z,99592.22
2023-01-19T02:22:08.336Z,99593.66
2023-01-19T02:24:40.144Z,99592.31
2023-01-19T02:27:08.008Z,99594.97
2023-01-19T02:29:35.398Z,99591.63
2023-01-19T02:32:03.279Z,99580.22
2023-01-19T02:34:30.690Z,99583.19
2023-01-19T02:36:59.153Z,99599.38
2023-01-19T02:39:38.814Z,99579.72
2023-01-19T02:42:23.125Z,99582.66
2023-01-19T02:44:53.630Z,99598.31
2023-01-19T02:47:20.571Z,99588.91
2023-01-19T02:49:57.783Z,99589.81
2023-01-19T02:52:26.004Z,99580.16
2023-01-19T02:55:01.818Z,99555.91
2023-01-19T02:57:54.033Z,99574.44
2023-01-19T03:00:51.599Z,99591.09
2023-01-19T03:03:48.671Z,99573.88
2023-01-19T03:06:35.728Z,99595.06
2023-01-19T03:09:11.443Z,99588.88
2023-01-19T03:11:46.526Z,99598.38
2023-01-19T03:14:20.258Z,99578.56
2023-01-19T03:16:51.552Z,99588.06
2023-01-19T03:19:23.529Z,99589.31
2023-01-19T03:21:57.531Z,99597.91
2023-01-19T03:24:27.280Z,99593.66
2023-01-19T03:27:00.725Z,99607.69
2023-01-19T03:29:35.070Z,99625.31
2023-01-19T03:32:07.189Z,99641.66
2023-01-19T03:34:35.320Z,99628.00
2023-01-19T03:37:04.861Z,99622.75
2023-01-19T03:39:31.883Z,99624.22
2023-01-19T03:42:03.151Z,99626.38
2023-01-19T03:44:33.186Z,99643.38
2023-01-19T03:47:00.922Z,99636.31
2023-01-19T03:49:31.497Z,99636.03
2023-01-19T03:51:59.151Z,99632.50
2023-01-19T03:54:26.640Z,99639.13
2023-01-19T03:56:54.127Z,99641.09
2023-01-19T03:59:21.939Z,99650.47
2023-01-19T04:01:49.529Z,99672.88
2023-01-19T04:04:16.485Z,99681.88
2023-01-19T04:06:44.205Z,99671.53
2023-01-19T04:09:11.436Z,99668.44
2023-01-19T04:11:38.337Z,99672.78
2023-01-19T04:14:05.319Z,99682.81
2023-01-19T04:16:32.309Z,99695.53
2023-01-19T04:18:59.205Z,99682.34
2023-01-19T04:21:26.081Z,99681.31
2023-01-19T04:23:53.399Z,99690.19
2023-01-19T04:26:20.394Z,99683.06
2023-01-19T04:28:47.328Z,99682.78
2023-01-19T04:31:14.675Z,99684.44
2023-01-19T04:33:41.657Z,99670.88
2023-01-19T04:36:08.992Z,99668.78
2023-01-19T04:38:36.347Z,99670.50
2023-01-19T04:41:03.351Z,99674.56
2023-01-19T04:43:30.255Z,99697.78
2023-01-19T04:45:57.203Z,99682.63
2023-01-19T04:48:24.392Z,99687.38
2023-01-19T04:50:52.658Z,99682.22
2023-01-19T04:53:19.800Z,99689.47
2023-01-19T04:55:46.948Z,99689.66
2023-01-19T04:58:13.972Z,99698.22
2023-01-19T05:00:40.939Z,99704.31
2023-01-19T05:03:07.848Z,99702.28
2023-01-19T05:05:34.832Z,99703.00
2023-01-19T05:08:01.918Z,99710.94
2023-01-19T05:10:28.875Z,99708.69
2023-01-19T05:12:56.041Z,99706.88
2023-01-19T05:15:23.606Z,99714.19
2023-01-19T05:17:50.775Z,99713.47
2023-01-19T05:20:17.959Z,99717.19
2023-01-19T05:22:51.961Z,99735.28
2023-01-19T05:25:19.371Z,99728.06
2023-01-19T05:27:46.507Z,99722.91
2023-01-19T05:30:14.419Z,99732.84
2023-01-19T05:32:41.526Z,99735.63
2023-01-19T05:35:08.898Z,99738.72
2023-01-19T05:37:35.978Z,99745.66
2023-01-19T05:40:03.289Z,99735.94
2023-01-19T05:42:32.118Z,99743.78
2023-01-19T05:45:00.067Z,99754.66
2023-01-19T05:47:29.593Z,99741.66
2023-01-19T05:49:56.592Z,99739.69
2023-01-19T05:52:25.177Z,99758.81
2023-01-19T05:54:52.285Z,99767.28
2023-01-19T05:57:19.232Z,99765.63
2023-01-19T05:59:46.474Z,99775.31
2023-01-19T06:02:13.652Z,99784.88
2023-01-19T06:04:40.791Z,99782.72
2023-01-19T06:07:07.767Z,99774.97
2023-01-19T06:09:34.814Z,99798.34
2023-01-19T06:12:01.687Z,99784.94
2023-01-19T06:14:28.590Z,99786.97
2023-01-19T06:16:55.525Z,99798.03
2023-01-19T06:19:22.581Z,99802.63
2023-01-19T06:21:52.372Z,99815.31
2023-01-19T06:24:19.860Z,99812.53
2023-01-19T06:26:46.959Z,99829.56
2023-01-19T06:29:14.719Z,99824.69
2023-01-19T06:31:42.030Z,99833.09
2023-01-19T06:34:09.335Z,99823.41
2023-01-19T06:36:36.896Z,99817.03
2023-01-19T06:39:05.984Z,99814.53
2023-01-19T06:41:33.775Z,99810.41
2023-01-19T06:44:01.225Z,99809.50
2023-01-19T06:46:29.111Z,99808.66
2023-01-19T06:48:56.220Z,99792.28
2023-01-19T06:51:23.766Z,99805.34
2023-01-19T06:53:50.655Z,99813.09
2023-01-19T06:56:17.575Z,99816.31
2023-01-19T06:58:47.289Z,99821.72
2023-01-19T07:01:14.598Z,99838.19
2023-01-19T07:03:41.542Z,99827.41
2023-01-19T07:06:08.928Z,99838.75
2023-01-19T07:08:37.367Z,99827.41
2023-01-19T07:11:25.073Z,99833.91
2023-01-19T07:13:55.727Z,99822.66
2023-01-19T07:16:23.469Z,99810.34
2023-01-19T07:18:51.055Z,99838.09
2023-01-19T07:21:18.574Z,99840.16
2023-01-19T07:23:49.049Z,99848.66
2023-01-19T07:26:18.693Z,99836.34
2023-01-19T07:28:47.476Z,99835.94
2023-01-19T07:31:15.712Z,99844.84
2023-01-19T07:33:42.716Z,99857.91
2023-01-19T07:36:11.363Z,99871.53
2023-01-19T07:38:38.176Z,99880.84
2023-01-19T07:41:07.420Z,99891.41
2023-01-19T07:43:34.482Z,99883.56
2023-01-19T07:46:05.659Z,99893.31
2023-01-19T07:48:32.699Z,99896.22
2023-01-19T07:51:05.906Z,99890.72
2023-01-19T07:53:33.031Z,99878.69
2023-01-19T07:56:00.015Z,99887.38
2023-01-19T07:58:27.341Z,99898.47
2023-01-19T08:00:54.618Z,99902.38
2023-01-19T08:03:21.792Z,99916.97
2023-01-19T08:05:53.273Z,99930.00
2023-01-19T08:08:20.644Z,99912.31
2023-01-19T08:10:50.501Z,99907.63
2023-01-19T08:13:18.691Z,99903.84
2023-01-19T08:15:48.802Z,99928.84
2023-01-19T08:18:15.860Z,99931.09
2023-01-19T08:20:42.794Z,99947.81
2023-01-19T08:23:10.662Z,99950.94
2023-01-19T08:25:42.329Z,99965.41
2023-01-19T08:28:10.550Z,99955.56
2023-01-19T08:30:38.852Z,99949.97
2023-01-19T08:33:09.305Z,99964.91
2023-01-19T08:35:41.544Z,99958.50
2023-01-19T08:38:10.188Z,99961.38
2023-01-19T08:40:39.650Z,99959.50
2023-01-19T08:43:17.472Z,99973.91
2023-01-19T08:45:50.075Z,99969.56
2023-01-19T08:48:22.834Z,99964.91
2023-01-19T08:50:51.344Z,99964.91
2023-01-19T08:53:21.139Z,99955.28
2023-01-19T08:55:48.163Z,99953.13
2023-01-19T08:58:15.079Z,99942.34
2023-01-19T09:00:42.408Z,99951.25
2023-01-19T09:03:12.953Z,99936.72
2023-01-19T09:05:40.107Z,99938.53
2023-01-19T09:08:09.767Z,99934.63
2023-01-19T09:10:38.041Z,99944.25
2023-01-19T09:13:08.519Z,99943.81
2023-01-19T09:18:22.894Z,99931.84
2023-01-19T09:20:50.544Z,99930.75
2023-01-19T09:23:20.363Z,99918.22
2023-01-19T09:25:48.063Z,99921.41
2023-01-19T09:28:17.690Z,99921.22
2023-01-19T09:30:44.829Z,99918.25
2023-01-19T09:33:14.858Z,99916.91
2023-01-19T09:35:43.313Z,99909.25
2023-01-19T09:38:11.233Z,99910.06
2023-01-19T09:40:44.009Z,99932.44
2023-01-19T09:43:20.098Z,99929.78
2023-01-19T09:46:02.765Z,99921.13
2023-01-19T09:48:48.448Z,99928.78
2023-01-19T09:51:38.481Z,99937.59
2023-01-19T09:54:16.992Z,99947.19
2023-01-19T09:56:45.726Z,99940.91
2023-01-19T09:59:19.322Z,99935.75
2023-01-19T10:01:58.308Z,99932.56
2023-01-19T10:04:42.620Z,99933.16
2023-01-19T10:07:31.667Z,99936.41
2023-01-19T10:10:09.441Z,99928.09
2023-01-19T10:12:43.816Z,99934.22
2023-01-19T10:15:18.251Z,99939.53
2023-01-19T10:18:01.566Z,99945.81
2023-01-19T10:20:37.790Z,99944.38
2023-01-19T10:23:17.503Z,99929.25
2023-01-19T10:25:45.423Z,99923.47
2023-01-19T10:28:15.607Z,99925.53
2023-01-19T10:30:46.682Z,99922.34
2023-01-19T10:33:15.475Z,99917.38
2023-01-19T10:35:43.020Z,99932.88
2023-01-19T10:38:14.457Z,99944.91
2023-01-19T10:41:16.853Z,99937.56
2023-01-19T10:43:45.764Z,99943.56
2023-01-19T10:46:34.300Z,99935.97
2023-01-19T10:49:01.905Z,99940.03
2023-01-19T10:51:29.356Z,99945.66
2023-01-19T10:54:02.332Z,99947.22
2023-01-19T10:56:36.027Z,99945.53
2023-01-19T10:59:07.189Z,99942.06
2023-01-19T11:01:37.180Z,99941.56
2023-01-19T11:04:33.608Z,99940.56
2023-01-19T11:07:18.889Z,99938.06
2023-01-19T11:09:47.514Z,99942.84
2023-01-19T11:12:21.858Z,99945.22
2023-01-19T11:14:50.950Z,99964.84
2023-01-19T11:17:27.485Z,99957.97
2023-01-19T11:20:02.320Z,99946.34
2023-01-19T11:22:33.911Z,99952.56
2023-01-19T11:25:03.756Z,99949.69
2023-01-19T11:27:34.582Z,99955.69
2023-01-19T11:30:19.380Z,99971.31
2023-01-19T11:32:47.111Z,99985.56
2023-01-19T11:35:40.137Z,99975.38
2023-01-19T11:38:13.002Z,99972.03
2023-01-19T11:40:41.995Z,99977.59
2023-01-19T11:43:13.847Z,99971.81
2023-01-19T11:45:41.295Z,99969.91
2023-01-19T11:48:27.694Z,99970.84
2023-01-19T11:50:55.347Z,99960.63
2023-01-19T11:53:25.485Z,99967.44
2023-01-19T11:56:04.779Z,99974.81
2023-01-19T11:58:33.553Z,99990.00
2023-01-19T12:01:21.056Z,99997.69
2023-01-19T12:04:01.583Z,99994.38
2023-01-19T12:06:33.933Z,99995.19
2023-01-19T12:09:21.249Z,99998.75
2023-01-19T12:11:55.714Z,100010.84
2023-01-19T12:14:36.952Z,100015.94
2023-01-19T12:17:07.431Z,100007.41
2023-01-19T12:20:06.514Z,100023.88
2023-01-19T12:22:43.436Z,100025.94
2023-01-19T12:25:22.383Z,100034.94
2023-01-19T12:27:50.751Z,100023.91
2023-01-19T12:30:24.951Z,100026.06
2023-01-19T12:32:51.976Z,100036.00
2023-01-19T12:35:57.089Z,100031.50
2023-01-19T12:38:29.999Z,100035.19
2023-01-19T12:41:18.879Z,100048.19
2023-01-19T12:43:47.168Z,100045.81
2023-01-19T12:46:24.825Z,100042.38
2023-01-19T12:48:53.031Z,100046.47
2023-01-19T12:51:24.417Z,100040.09
2023-01-19T12:53:55.335Z,100025.63
2023-01-19T12:56:31.004Z,100030.97
2023-01-19T12:58:58.306Z,100026.69
2023-01-19T13:01:27.030Z,100030.66
2023-01-19T13:04:09.808Z,100023.00
2023-01-19T13:06:48.639Z,100028.00
2023-01-19T13:09:33.782Z,100019.63
2023-01-19T13:12:15.812Z,100023.34
2023-01-19T13:14:43.730Z,100025.13
2023-01-19T13:17:28.610Z,100015.78
2023-01-19T13:20:27.558Z,100018.28
2023-01-19T13:23:22.367Z,100027.88
2023-01-19T13:25:53.567Z,100019.09
2023-01-19T13:28:29.036Z,100013.72
2023-01-19T13:30:59.447Z,100014.09
2023-01-19T13:33:30.261Z,100016.16
2023-01-19T13:35:58.980Z,100016.69
2023-01-19T13:38:28.088Z,100017.63
2023-01-19T13:40:56.687Z,100011.00
2023-01-19T13:43:29.644Z,100011.19
2023-01-19T13:45:57.022Z,100004.13
2023-01-19T13:48:25.280Z,100006.94
2023-01-19T13:51:00.603Z,100033.56
2023-01-19T13:53:29.503Z,100047.03
2023-01-19T13:56:16.729Z,100058.66
2023-01-19T13:58:43.790Z,100056.63
2023-01-19T14:01:29.324Z,100058.03
2023-01-19T14:03:57.185Z,100073.72
2023-01-19T14:06:36.027Z,100070.94
2023-01-19T14:09:16.918Z,100073.44
2023-01-19T14:12:04.295Z,100070.13
2023-01-19T14:14:31.505Z,100071.41
2023-01-19T14:16:59.617Z,100087.63
2023-01-19T14:19:26.562Z,100079.69
2023-01-19T14:22:04.282Z,100067.91
2023-01-19T14:24:34.488Z,100073.97
2023-01-19T14:27:21.209Z,100073.97
2023-01-19T14:29:50.777Z,100076.84
2023-01-19T14:32:23.671Z,100077.47
2023-01-19T14:35:12.587Z,100073.06
2023-01-19T14:37:47.604Z,100073.69
2023-01-19T14:40:18.517Z,100071.75
2023-01-19T14:42:57.559Z,100086.25
2023-01-19T14:45:37.249Z,100084.03
2023-01-19T14:48:12.169Z,100093.44
2023-01-19T14:50:48.264Z,100106.56
2023-01-19T14:53:26.673Z,100097.22
2023-01-19T14:56:00.430Z,100073.88
2023-01-19T14:58:30.274Z,100059.38
2023-01-19T15:00:57.525Z,100051.44
2023-01-19T15:03:38.572Z,100054.78
2023-01-19T15:06:17.724Z,100059.91
2023-01-19T15:08:45.740Z,100059.56
2023-01-19T15:11:23.467Z,100063.44
2023-01-19T15:13:51.122Z,100072.91
2023-01-19T15:16:18.961Z,100074.78
2023-01-19T15:18:45.945Z,100088.81
2023-01-19T15:21:20.166Z,100095.06
2023-01-19T15:23:47.780Z,100086.50
2023-01-19T15:26:20.910Z,100091.94
2023-01-19T15:28:51.444Z,100090.34
2023-01-19T15:31:21.340Z,100093.97
2023-01-19T15:33:48.468Z,100086.22
2023-01-19T15:36:20.970Z,100077.34
2023-01-19T15:38:51.002Z,100071.84
2023-01-19T15:41:29.983Z,100073.56
2023-01-19T15:43:57.772Z,100074.50
2023-01-19T15:46:25.887Z,100068.00
2023-01-19T15:48:53.727Z,100061.66
2023-01-19T15:51:23.432Z,100059.34
2023-01-19T15:53:50.597Z,100046.34
2023-01-19T15:56:19.640Z,100055.31
2023-01-19T15:58:46.991Z,100048.66
2023-01-19T16:01:16.206Z,100038.88
2023-01-19T16:03:43.514Z,100037.97
2023-01-19T16:06:10.903Z,100027.16
2023-01-19T16:08:38.106Z,100027.44
2023-01-19T16:11:10.517Z,100023.91
2023-01-19T16:13:37.695Z,100018.75
2023-01-19T16:16:05.996Z,100013.41
2023-01-19T16:18:32.977Z,100015.72
2023-01-19T16:21:00.911Z,100009.63
2023-01-19T16:23:27.763Z,100002.44
2023-01-19T16:26:09.909Z,99992.75
2023-01-19T16:28:37.959Z,99995.59
2023-01-19T16:31:04.943Z,100009.00
2023-01-19T16:33:31.894Z,100022.47
2023-01-19T16:35:58.867Z,100008.44
2023-01-19T16:38:25.925Z,100013.03
2023-01-19T16:40:52.851Z,100012.31
2023-01-19T16:43:19.819Z,100017.31
2023-01-19T16:46:01.279Z,100007.78
2023-01-19T16:48:28.636Z,99996.81
2023-01-19T16:51:04.136Z,99998.50
2023-01-19T16:53:32.928Z,100010.81
2023-01-19T16:55:59.807Z,100000.41
2023-01-19T16:58:26.783Z,99997.34
2023-01-19T17:00:53.761Z,99994.88
2023-01-19T17:03:20.834Z,100010.63
2023-01-19T17:05:51.521Z,100004.47
2023-01-19T17:08:20.331Z,100006.25
2023-01-19T17:10:52.745Z,100005.47
2023-01-19T17:13:19.642Z,100008.16
2023-01-19T17:15:46.517Z,100013.75
2023-01-19T17:18:13.532Z,100010.56
2023-01-19T17:20:40.393Z,100009.34
2023-01-19T17:23:07.320Z,99979.53
2023-01-19T17:25:34.286Z,99998.09
2023-01-19T17:28:03.972Z,100014.50
2023-01-19T17:30:30.970Z,100005.63
2023-01-19T17:32:57.811Z,100006.75
2023-01-19T17:35:24.709Z,99998.06
2023-01-19T17:37:55.078Z,100004.91
2023-01-19T17:40:22.012Z,100005.38
2023-01-19T17:42:48.956Z,100009.25
2023-01-19T17:45:15.993Z,100007.41
2023-01-19T17:47:42.850Z,100010.34
2023-01-19T17:50:10.490Z,100002.13
2023-01-19T17:52:38.134Z,99999.00
2023-01-19T17:55:05.535Z,100003.69
2023-01-19T17:57:32.466Z,100012.03
2023-01-19T17:59:59.474Z,100014.53
2023-01-19T18:02:26.495Z,100011.94
2023-01-19T18:04:53.588Z,100009.34
2023-01-19T18:07:20.518Z,100009.34
2023-01-19T18:09:47.578Z,99998.34
2023-01-19T18:12:14.586Z,99996.53
2023-01-19T18:14:41.599Z,99994.31
2023-01-19T18:17:08.677Z,99989.06
2023-01-19T18:19:35.662Z,99989.50
2023-01-19T18:22:02.798Z,99981.84
2023-01-19T18:24:29.791Z,99967.53
2023-01-19T18:26:56.939Z,99990.34
2023-01-19T18:29:23.974Z,99980.84
2023-01-19T18:31:50.954Z,99983.72
2023-01-19T18:34:18.093Z,99970.78
2023-01-19T18:36:45.129Z,99978.38
2023-01-19T18:39:12.200Z,99964.59
2023-01-19T18:41:41.902Z,99968.03
2023-01-19T18:44:12.496Z,99967.00
2023-01-19T18:46:39.500Z,99959.06
2023-01-19T18:49:06.785Z,99971.34
2023-01-19T18:51:33.818Z,99973.94
2023-01-19T18:54:00.759Z,99974.03
2023-01-19T18:56:27.764Z,99971.91
2023-01-19T18:58:54.930Z,99960.84
2023-01-19T19:01:32.815Z,99964.34
2023-01-19T19:04:00.140Z,99964.72
2023-01-19T19:06:27.619Z,99965.47
2023-01-19T19:08:56.496Z,99964.34
2023-01-19T19:11:25.553Z,99972.84
2023-01-19T19:13:54.002Z,99967.66
2023-01-19T19:16:21.124Z,99978.19
2023-01-19T19:18:51.128Z,99974.66
2023-01-19T19:21:20.437Z,99973.19
2023-01-19T19:23:52.709Z,99979.91
2023-01-19T19:26:20.321Z,99983.53
2023-01-19T19:28:47.501Z,99988.97
2023-01-19T19:31:18.230Z,99992.03
2023-01-19T19:33:45.300Z,99993.31
2023-01-19T19:36:12.763Z,99985.66
2023-01-19T19:38:41.260Z,99983.25
2023-01-19T19:41:09.968Z,99983.44
2023-01-19T19:43:37.514Z,99985.94
2023-01-19T19:46:09.723Z,99986.03
2023-01-19T19:48:39.341Z,99977.25
2023-01-19T19:51:17.509Z,99974.66
2023-01-19T19:53:46.524Z,99976.69
2023-01-19T19:56:13.854Z,99981.13
2023-01-19T19:58:42.758Z,99974.84
2023-01-19T20:01:21.272Z,99985.75
2023-01-19T20:03:48.761Z,99983.44
2023-01-19T20:06:20.832Z,99979.19
2023-01-19T20:08:52.516Z,99964.25
2023-01-19T20:11:26.421Z,99963.06
2023-01-19T20:13:54.171Z,99959.56
2023-01-19T20:16:23.196Z,99961.19
2023-01-19T20:18:54.148Z,99953.25
2023-01-19T20:21:25.902Z,99942.38
2023-01-19T20:23:54.286Z,99930.94
2023-01-19T20:26:25.315Z,99931.88
2023-01-19T20:28:52.886Z,99930.75
2023-01-19T20:31:21.656Z,99931.50
2023-01-19T20:33:50.745Z,99913.41
2023-01-19T20:36:18.470Z,99932.31
2023-01-19T20:38:45.697Z,99941.44
2023-01-19T20:41:13.379Z,99937.03
2023-01-19T20:43:40.592Z,99937.75
2023-01-19T20:46:08.047Z,99938.50
2023-01-19T20:48:35.639Z,99936.22
2023-01-19T20:51:08.603Z,99934.09
2023-01-19T20:53:36.000Z,99948.09
2023-01-19T20:56:10.103Z,99943.28
2023-01-19T20:58:37.621Z,99945.31
2023-01-19T21:01:25.365Z,99945.69
2023-01-19T21:03:52.760Z,99953.44
2023-01-19T21:06:21.343Z,99945.13
2023-01-19T21:08:51.752Z,99929.88
2023-01-19T21:11:21.217Z,99925.38
2023-01-19T21:13:50.683Z,99933.88
2023-01-19T21:16:17.706Z,99916.84
2023-01-19T21:18:44.670Z,99935.69
2023-01-19T21:21:28.471Z,99933.28
2023-01-19T21:23:57.745Z,99934.75
2023-01-19T21:26:24.636Z,99930.16
2023-01-19T21:28:51.677Z,99945.28
2023-01-19T21:31:18.709Z,99926.19
2023-01-19T21:33:45.705Z,99943.81
2023-01-19T21:36:12.703Z,99946.31
2023-01-19T21:38:39.638Z,99951.28
2023-01-19T21:41:08.666Z,99936.16
2023-01-19T21:43:38.802Z,99942.88
2023-01-19T21:46:14.433Z,99929.56
2023-01-19T21:48:42.392Z,99917.94
2023-01-19T21:51:10.151Z,99926.88
2023-01-19T21:53:37.451Z,99927.75
2023-01-19T21:56:09.470Z,99924.31
2023-01-19T21:58:36.543Z,99925.16
2023-01-19T22:01:05.971Z,99921.63
2023-01-19T22:03:33.237Z,99926.16
2023-01-19T22:06:05.138Z,99927.94
2023-01-19T22:08:32.437Z,99924.22
2023-01-19T22:11:06.584Z,99915.72
2023-01-19T22:13:34.591Z,99929.38
2023-01-19T22:16:03.816Z,99927.56
2023-01-19T22:18:31.010Z,99922.09
2023-01-19T22:21:08.245Z,99928.72
2023-01-19T22:23:35.420Z,99921.06
2023-01-19T22:26:02.314Z,99926.03
2023-01-19T22:28:29.444Z,99921.78
2023-01-19T22:31:06.094Z,99915.69
2023-01-19T22:33:33.253Z,99918.06
2023-01-19T22:36:16.947Z,99926.56
2023-01-19T22:38:45.016Z,99915.28
2023-01-19T22:41:17.348Z,99923.06
2023-01-19T22:43:44.710Z,99917.09
2023-01-19T22:46:12.161Z,99916.91
2023-01-19T22:48:40.675Z,99919.06
2023-01-19T22:51:07.910Z,99922.47
2023-01-19T22:53:34.826Z,99922.09
2023-01-19T22:56:19.511Z,99931.06
2023-01-19T22:58:47.555Z,99930.66
2023-01-19T23:01:25.813Z,99930.13
2023-01-19T23:03:56.646Z,99939.44
2023-01-19T23:06:29.936Z,99936.66
2023-01-19T23:08:59.078Z,99932.44
2023-01-19T23:11:28.636Z,99933.53
2023-01-19T23:13:56.013Z,99940.19
2023-01-19T23:16:22.956Z,99930.75
2023-01-19T23:18:53.119Z,99942.38
2023-01-19T23:21:22.117Z,99942.97
2023-01-19T23:23:52.561Z,99940.72
2023-01-19T23:26:21.835Z,99931.47
2023-01-19T23:28:54.283Z,99932.94
2023-01-19T23:31:26.601Z,99934.94
2023-01-19T23:33:56.014Z,99927.06
2023-01-19T23:36:25.283Z,99926.47
2023-01-19T23:38:55.119Z,99928.09
2023-01-19T23:41:22.975Z,99938.06
2023-01-19T23:43:50.497Z,99936.84
2023-01-19T23:46:19.493Z,99945.94
2023-01-19T23:48:47.417Z,99949.22
2023-01-19T23:51:25.780Z,99944.13
2023-01-19T23:53:53.399Z,99948.53
2023-01-19T23:56:22.873Z,99952.28
2023-01-19T23:58:58.109Z,99945.22
